Leeward Point Field
MUGM : now visible

Airfield :











YOU CAN JOIN US ON...

 
LOGIN :

Register | Disclaimer

   EN    FR    IT 

 









Legend :    VFR   Marginal VFR   IFR   Intensive IFR   Very Intensive IFR
Visi :
Ceiling :
>= 8 km
>= 3000ft
5 to 8 km
1000 to 3000 ft
1500m to 5 km
500 to 1000 ft
800 to 1500m
200 to 500 ft
< 800m
< 200 ft
Symbols :   Thunderstorms  Fog  Heavy snow  Heavy precipitations  Wind > 20 kt






- Airport Elevation : 56 ft
- IATA code : NBW


MUGM - Leeward Point Field

CURRENT METAR :
  • 290151Z 30007KT 10SM FEW020 SCT060 BKN100 26/24 A3002 RMK SLP164 T02610244

EXPIRED METARs :
  • 290051Z 34008KT 10SM SCT020 BKN055 28/24 A3000 RMK SLP158 T02780244
  • 282351Z 06006KT 10SM FEW015 SCT030 SCT060 29/26 A2999 RMK SLP156 T02890256 10317 20289 53014
  • 282251Z 10011KT 10SM FEW015 SCT060 29/26 A2997 RMK SLP147 T02890261
  • 282151Z 11008KT 10SM FEW030 SCT090 29/26 A2996 RMK SLP146 T02940256

TAF TAF MUGM
Valid from the 28 at 23:00 until the 29 at 23:00 UTC


2823/2923 09009KT 9999 VCSH FEW015 SCT060 QNH2996INS
BECMG 2901/2903 33006KT 9999 NSW FEW020 FEW060 QNH2993INS
BECMG 2916/2918 12009KT 9999 FEW030 QNH2990INS TX31/2917Z TN23/2911Z FN20094



MET'MAP, your aeronautical weather chart ! - Copyright ORBIFLY December 2007 - Disclaimer

ORBIFLY MET'MAP TEAM :

Programming & Development : Alexandra Zaïnal
Original concept : Baudouin d'Aumeries
Technical & hardware support : Manuel Goepfert
Assistance : Marc-Olivier Méhu




SOURCES & CREDITS :

   NOAA       Earth
Advisory